createdAt,value
2023-04-20T00:02:09.032Z,5.90
2023-04-20T00:04:36.529Z,5.97
2023-04-20T00:07:03.135Z,4.90
2023-04-20T00:09:29.586Z,5.25
2023-04-20T00:11:56.348Z,4.70
2023-04-20T00:14:23.039Z,3.97
2023-04-20T00:16:49.554Z,6.82
2023-04-20T00:19:16.372Z,7.10
2023-04-20T00:21:43.105Z,8.73
2023-04-20T00:24:09.755Z,5.05
2023-04-20T00:26:36.145Z,5.45
2023-04-20T00:29:02.569Z,5.45
2023-04-20T00:31:29.128Z,6.07
2023-04-20T00:33:55.769Z,5.88
2023-04-20T00:36:22.202Z,5.47
2023-04-20T00:38:48.579Z,5.85
2023-04-20T00:41:15.038Z,7.65
2023-04-20T00:43:54.349Z,7.40
2023-04-20T00:46:21.568Z,9.23
2023-04-20T00:48:53.496Z,5.70
2023-04-20T00:51:21.664Z,7.03
2023-04-20T00:53:48.126Z,7.25
2023-04-20T00:56:16.357Z,6.88
2023-04-20T00:58:46.389Z,8.68
2023-04-20T01:01:17.446Z,6.93
2023-04-20T01:06:15.656Z,9.20
2023-04-20T01:08:47.292Z,6.43
2023-04-20T01:11:14.001Z,9.02
2023-04-20T01:13:40.429Z,6.65
2023-04-20T01:16:07.924Z,6.82
2023-04-20T01:18:49.340Z,11.27
2023-04-20T01:21:18.488Z,5.63
2023-04-20T01:23:46.131Z,5.47
2023-04-20T01:26:15.576Z,6.15
2023-04-20T01:28:42.468Z,7.07
2023-04-20T01:31:09.916Z,6.78
2023-04-20T01:33:36.734Z,7.20
2023-04-20T01:36:04.942Z,6.03
2023-04-20T01:38:32.927Z,6.30
2023-04-20T01:40:59.453Z,6.18
2023-04-20T01:43:26.194Z,6.00
2023-04-20T01:45:52.749Z,6.68
2023-04-20T01:48:19.292Z,6.20
2023-04-20T01:50:45.720Z,6.43
2023-04-20T01:53:13.695Z,9.40
2023-04-20T01:55:40.301Z,6.13
2023-04-20T01:58:06.670Z,6.25
2023-04-20T02:00:33.144Z,5.38
2023-04-20T02:02:59.672Z,6.97
2023-04-20T02:05:26.333Z,6.97
2023-04-20T02:07:52.766Z,11.73
2023-04-20T02:10:19.228Z,6.90
2023-04-20T02:12:46.040Z,6.93
2023-04-20T02:15:12.484Z,7.82
2023-04-20T02:17:39.021Z,6.30
2023-04-20T02:20:06.935Z,7.13
2023-04-20T02:22:34.994Z,7.07
2023-04-20T02:25:04.808Z,8.95
2023-04-20T02:27:31.955Z,7.40
2023-04-20T02:29:59.277Z,7.70
2023-04-20T02:32:26.144Z,8.35
2023-04-20T02:34:53.068Z,5.95
2023-04-20T02:37:19.590Z,6.53
2023-04-20T02:39:46.367Z,6.30
2023-04-20T02:42:12.773Z,6.63
2023-04-20T02:44:39.347Z,5.72
2023-04-20T02:47:05.777Z,5.93
2023-04-20T02:49:32.254Z,7.03
2023-04-20T02:51:58.658Z,5.03
2023-04-20T02:54:25.445Z,8.27
2023-04-20T02:56:51.863Z,9.23
2023-04-20T02:59:18.414Z,4.88
2023-04-20T03:01:45.004Z,7.93
2023-04-20T03:04:11.819Z,6.53
2023-04-20T03:06:40.318Z,7.53
2023-04-20T03:09:07.518Z,5.78
2023-04-20T03:11:33.947Z,7.63
2023-04-20T03:14:00.499Z,7.25
2023-04-20T03:16:26.898Z,4.75
2023-04-20T03:18:53.281Z,7.72
2023-04-20T03:21:19.634Z,7.32
2023-04-20T03:23:46.067Z,6.53
2023-04-20T03:26:13.523Z,7.15
2023-04-20T03:28:39.980Z,5.80
2023-04-20T03:31:06.648Z,7.38
2023-04-20T03:33:33.137Z,9.88
2023-04-20T03:35:59.560Z,7.07
2023-04-20T03:38:26.170Z,6.93
2023-04-20T03:40:52.662Z,4.32
2023-04-20T03:43:19.156Z,6.90
2023-04-20T03:45:45.741Z,5.90
2023-04-20T03:48:12.209Z,9.23
2023-04-20T03:50:38.699Z,7.22
2023-04-20T03:53:05.118Z,5.50
2023-04-20T03:55:31.748Z,5.35
2023-04-20T03:57:58.166Z,8.75
2023-04-20T04:00:24.646Z,10.70
2023-04-20T04:02:51.260Z,6.25
2023-04-20T04:05:17.915Z,6.15
2023-04-20T04:07:44.358Z,5.72
2023-04-20T04:10:11.137Z,8.05
2023-04-20T04:12:37.504Z,7.00
2023-04-20T04:15:05.047Z,6.65
2023-04-20T04:17:31.554Z,7.30
2023-04-20T04:19:58.036Z,7.03
2023-04-20T04:22:24.436Z,6.40
2023-04-20T04:24:51.645Z,6.70
2023-04-20T04:27:18.470Z,8.65
2023-04-20T04:29:44.994Z,7.45
2023-04-20T04:32:12.420Z,7.30
2023-04-20T04:34:39.048Z,8.57
2023-04-20T04:37:05.505Z,9.25
2023-04-20T04:39:31.904Z,6.05
2023-04-20T04:41:58.322Z,6.47
2023-04-20T04:44:26.174Z,7.43
2023-04-20T04:46:52.573Z,7.18
2023-04-20T04:49:20.516Z,8.10
2023-04-20T04:51:48.024Z,5.65
2023-04-20T04:54:14.486Z,8.00
2023-04-20T04:56:40.923Z,5.70
2023-04-20T04:59:07.269Z,5.55
2023-04-20T05:01:33.782Z,3.88
2023-04-20T05:04:00.990Z,6.38
2023-04-20T05:06:27.620Z,6.15
2023-04-20T05:08:54.062Z,7.28
2023-04-20T05:11:20.515Z,4.45
2023-04-20T05:13:48.476Z,7.15
2023-04-20T05:16:14.929Z,6.18
2023-04-20T05:18:41.396Z,8.10
2023-04-20T05:21:07.963Z,6.85
2023-04-20T05:23:34.396Z,5.57
2023-04-20T05:26:00.881Z,6.07
2023-04-20T05:28:27.345Z,5.88
2023-04-20T05:30:55.288Z,6.57
2023-04-20T05:33:22.829Z,7.00
2023-04-20T05:35:51.598Z,4.65
2023-04-20T05:38:17.973Z,6.28
2023-04-20T05:40:44.378Z,8.95
2023-04-20T05:43:10.801Z,7.18
2023-04-20T05:45:37.384Z,6.80
2023-04-20T05:48:04.010Z,7.22
2023-04-20T05:50:31.137Z,5.50
2023-04-20T05:52:57.563Z,7.78
2023-04-20T05:55:24.144Z,5.95
2023-04-20T05:57:52.288Z,5.55
2023-04-20T06:00:19.568Z,8.40
2023-04-20T06:02:46.204Z,6.00
2023-04-20T06:05:12.999Z,4.45
2023-04-20T06:07:39.458Z,7.85
2023-04-20T06:10:06.746Z,5.68
2023-04-20T06:12:33.297Z,4.85
2023-04-20T06:14:59.850Z,9.70
2023-04-20T06:17:28.805Z,4.88
2023-04-20T06:19:55.405Z,6.07
2023-04-20T06:22:21.959Z,5.05
2023-04-20T06:24:48.387Z,7.72
2023-04-20T06:27:14.717Z,5.47
2023-04-20T06:29:41.873Z,6.47
2023-04-20T06:32:08.416Z,5.15
2023-04-20T06:34:34.936Z,6.15
2023-04-20T06:37:02.462Z,7.00
2023-04-20T06:39:28.910Z,6.18
2023-04-20T06:41:56.715Z,6.95
2023-04-20T06:44:23.120Z,8.48
2023-04-20T06:46:49.556Z,6.80
2023-04-20T06:49:16.349Z,6.60
2023-04-20T06:51:43.229Z,6.72
2023-04-20T06:54:10.279Z,7.45
2023-04-20T06:56:36.902Z,8.73
2023-04-20T06:59:03.330Z,10.05
2023-04-20T07:01:29.922Z,8.13
2023-04-20T07:03:56.497Z,9.25
2023-04-20T07:06:23.032Z,8.65
2023-04-20T07:08:49.448Z,6.30
2023-04-20T07:11:15.876Z,5.95
2023-04-20T07:13:42.269Z,10.43
2023-04-20T07:16:10.165Z,7.35
2023-04-20T07:18:36.690Z,7.85
2023-04-20T07:21:03.223Z,7.60
2023-04-20T07:23:29.617Z,6.80
2023-04-20T07:25:56.185Z,6.22
2023-04-20T07:28:22.571Z,6.45
2023-04-20T07:30:48.958Z,7.63
2023-04-20T07:33:15.342Z,5.65
2023-04-20T07:35:41.950Z,7.78
2023-04-20T07:38:08.611Z,7.03
2023-04-20T07:40:34.983Z,7.07
2023-04-20T07:43:01.394Z,6.07
2023-04-20T07:45:27.924Z,6.57
2023-04-20T07:47:55.382Z,6.57
2023-04-20T07:50:22.074Z,7.40
2023-04-20T07:52:48.534Z,9.05
2023-04-20T07:55:15.908Z,7.55
2023-04-20T07:57:42.538Z,9.57
2023-04-20T08:00:10.097Z,7.60
2023-04-20T08:02:36.602Z,8.30
2023-04-20T08:05:03.923Z,7.97
2023-04-20T08:07:30.732Z,6.07
2023-04-20T08:09:57.208Z,7.10
2023-04-20T08:12:23.652Z,5.47
2023-04-20T08:14:50.334Z,7.65
2023-04-20T08:17:16.790Z,6.30
2023-04-20T08:19:44.981Z,8.10
2023-04-20T08:22:12.600Z,8.00
2023-04-20T08:24:39.214Z,7.25
2023-04-20T08:27:06.616Z,6.45
2023-04-20T08:29:33.102Z,7.28
2023-04-20T08:31:59.685Z,6.90
2023-04-20T08:34:26.387Z,7.50
2023-04-20T08:36:52.771Z,9.70
2023-04-20T08:39:21.806Z,6.82
2023-04-20T08:41:53.697Z,8.15
2023-04-20T08:44:20.529Z,8.32
2023-04-20T08:46:48.685Z,6.55
2023-04-20T08:49:16.648Z,7.75
2023-04-20T08:51:44.587Z,7.15
2023-04-20T08:54:12.270Z,6.55
2023-04-20T08:56:40.950Z,7.18
2023-04-20T08:59:10.132Z,7.53
2023-04-20T09:01:39.127Z,7.10
2023-04-20T09:04:27.012Z,6.35
2023-04-20T09:06:55.689Z,7.95
2023-04-20T09:09:24.651Z,9.63
2023-04-20T09:12:04.830Z,9.45
2023-04-20T09:14:42.149Z,7.60
2023-04-20T09:17:08.614Z,6.45
2023-04-20T09:19:35.064Z,8.48
2023-04-20T09:22:05.155Z,7.72
2023-04-20T09:24:34.150Z,7.50
2023-04-20T09:27:01.977Z,7.47
2023-04-20T09:29:30.028Z,8.98
2023-04-20T09:31:56.504Z,7.50
2023-04-20T09:34:23.899Z,7.85
2023-04-20T09:36:54.619Z,8.85
2023-04-20T09:39:23.352Z,7.63
2023-04-20T09:41:51.637Z,8.85
2023-04-20T09:44:19.497Z,10.40
2023-04-20T09:46:46.908Z,6.40
2023-04-20T09:49:14.608Z,7.18
2023-04-20T09:51:45.158Z,7.00
2023-04-20T09:54:12.914Z,9.73
2023-04-20T09:56:40.154Z,9.98
2023-04-20T09:59:07.886Z,8.63
2023-04-20T10:01:36.515Z,8.07
2023-04-20T10:04:08.830Z,8.68
2023-04-20T10:06:36.688Z,8.02
2023-04-20T10:09:05.947Z,9.35
2023-04-20T10:11:49.779Z,6.90
2023-04-20T10:14:23.099Z,9.38
2023-04-20T10:17:07.116Z,6.82
2023-04-20T10:19:41.795Z,8.07
2023-04-20T10:22:13.073Z,8.10
2023-04-20T10:24:40.143Z,7.72
2023-04-20T10:27:20.155Z,9.27
2023-04-20T10:29:46.931Z,10.52
2023-04-20T10:32:33.620Z,7.63
2023-04-20T10:35:08.739Z,10.18
2023-04-20T10:37:47.970Z,8.27
2023-04-20T10:40:14.494Z,7.55
2023-04-20T10:42:45.047Z,7.57
2023-04-20T10:45:12.365Z,8.05
2023-04-20T10:47:40.828Z,7.70
2023-04-20T10:50:09.884Z,7.85
2023-04-20T10:52:38.008Z,9.00
2023-04-20T10:55:05.627Z,9.35
2023-04-20T10:57:32.798Z,8.15
2023-04-20T10:59:59.858Z,8.10
2023-04-20T11:02:27.977Z,7.97
2023-04-20T11:05:00.772Z,9.48
2023-04-20T11:07:27.280Z,9.70
2023-04-20T11:09:56.221Z,7.80
2023-04-20T11:12:22.637Z,7.53
2023-04-20T11:14:58.726Z,7.10
2023-04-20T11:17:35.548Z,8.10
2023-04-20T11:20:13.206Z,9.07
2023-04-20T11:22:41.219Z,9.93
2023-04-20T11:25:10.686Z,8.10
2023-04-20T11:27:38.604Z,7.65
2023-04-20T11:30:06.112Z,7.00
2023-04-20T11:32:33.275Z,9.38
2023-04-20T11:35:07.858Z,7.45
2023-04-20T11:37:48.899Z,8.27
2023-04-20T11:40:15.472Z,6.22
2023-04-20T11:42:41.906Z,6.90
2023-04-20T11:45:08.813Z,7.97
2023-04-20T11:47:35.260Z,8.38
2023-04-20T11:50:01.678Z,6.13
2023-04-20T11:52:28.076Z,5.85
2023-04-20T11:54:54.507Z,6.93
2023-04-20T11:57:23.685Z,6.82
2023-04-20T11:59:50.160Z,7.93
2023-04-20T12:02:16.781Z,7.50
2023-04-20T12:04:43.565Z,7.10
2023-04-20T12:07:10.295Z,7.38
2023-04-20T12:09:38.158Z,7.53
2023-04-20T12:12:05.777Z,6.80
2023-04-20T12:14:36.160Z,8.35
2023-04-20T12:17:04.079Z,7.15
2023-04-20T12:19:31.717Z,7.20
2023-04-20T12:21:58.123Z,6.95
2023-04-20T12:24:24.748Z,7.28
2023-04-20T12:26:51.175Z,7.93
2023-04-20T12:29:17.710Z,9.70
2023-04-20T12:31:44.340Z,7.22
2023-04-20T12:34:11.124Z,8.07
2023-04-20T12:36:37.679Z,6.90
2023-04-20T12:39:04.250Z,7.65
2023-04-20T12:41:31.022Z,6.53
2023-04-20T12:43:57.476Z,6.47
2023-04-20T12:46:23.986Z,9.68
2023-04-20T12:48:50.586Z,8.48
2023-04-20T12:51:17.029Z,7.78
2023-04-20T12:53:43.399Z,8.32
2023-04-20T12:56:10.203Z,5.93
2023-04-20T12:58:37.040Z,6.28
2023-04-20T13:01:03.686Z,8.13
2023-04-20T13:03:30.336Z,9.40
2023-04-20T13:05:56.971Z,9.90
2023-04-20T13:08:23.376Z,7.50
2023-04-20T13:10:49.737Z,6.97
2023-04-20T13:13:16.159Z,7.07
2023-04-20T13:15:42.811Z,7.85
2023-04-20T13:18:12.053Z,8.25
2023-04-20T13:20:38.483Z,7.70
2023-04-20T13:23:05.079Z,10.05
2023-04-20T13:25:33.445Z,7.05
2023-04-20T13:28:01.709Z,8.30
2023-04-20T13:30:28.438Z,11.07
2023-04-20T13:32:54.914Z,7.78
2023-04-20T13:35:21.696Z,8.90
2023-04-20T13:37:48.197Z,9.55
2023-04-20T13:40:14.777Z,8.68
2023-04-20T13:42:41.228Z,11.15
2023-04-20T13:45:08.660Z,9.63
2023-04-20T13:47:35.214Z,8.50
2023-04-20T13:50:03.543Z,8.25
2023-04-20T13:52:30.156Z,8.43
2023-04-20T13:54:56.728Z,8.80
2023-04-20T13:57:23.100Z,8.98
2023-04-20T13:59:49.896Z,8.20
2023-04-20T14:02:16.325Z,8.75
2023-04-20T14:04:43.219Z,7.70
2023-04-20T14:07:09.708Z,8.18
2023-04-20T14:09:36.135Z,7.10
2023-04-20T14:12:03.251Z,9.07
2023-04-20T14:14:29.915Z,9.35
2023-04-20T14:16:56.335Z,8.57
2023-04-20T14:19:22.842Z,8.05
2023-04-20T14:21:49.177Z,7.72
2023-04-20T14:24:15.963Z,7.60
2023-04-20T14:26:42.535Z,10.30
2023-04-20T14:29:09.265Z,8.75
2023-04-20T14:31:35.922Z,7.55
2023-04-20T14:34:03.058Z,10.13
2023-04-20T14:36:30.224Z,8.77
2023-04-20T14:38:56.622Z,9.88
2023-04-20T14:41:23.494Z,10.52
2023-04-20T14:43:49.973Z,8.93
2023-04-20T14:46:16.624Z,8.77
2023-04-20T14:48:46.116Z,9.00
2023-04-20T14:51:13.471Z,9.13
2023-04-20T14:53:40.069Z,7.78
2023-04-20T14:56:06.884Z,9.20
2023-04-20T14:58:33.638Z,8.55
2023-04-20T15:00:59.996Z,8.45
2023-04-20T15:03:26.693Z,9.02
2023-04-20T15:05:57.693Z,8.20
2023-04-20T15:08:24.096Z,8.90
2023-04-20T15:10:52.596Z,8.40
2023-04-20T15:13:19.033Z,9.05
2023-04-20T15:15:48.772Z,9.50
2023-04-20T15:18:17.380Z,8.57
2023-04-20T15:20:44.593Z,10.95
2023-04-20T15:23:11.550Z,7.90
2023-04-20T15:25:38.812Z,8.73
2023-04-20T15:28:05.175Z,10.10
2023-04-20T15:30:31.656Z,10.77
2023-04-20T15:33:04.414Z,9.13
2023-04-20T15:35:31.943Z,8.00
2023-04-20T15:37:58.409Z,9.30
2023-04-20T15:40:24.905Z,9.18
2023-04-20T15:42:51.586Z,8.38
2023-04-20T15:45:19.962Z,9.73
2023-04-20T15:47:46.570Z,8.90
2023-04-20T15:50:13.132Z,9.27
2023-04-20T15:52:39.485Z,8.77
2023-04-20T15:55:06.682Z,9.52
2023-04-20T15:57:33.099Z,9.23
2023-04-20T15:59:59.478Z,10.98
2023-04-20T16:02:26.148Z,23.15
2023-04-20T16:04:52.880Z,9.05
2023-04-20T16:07:19.348Z,9.73
2023-04-20T16:09:45.875Z,8.68
2023-04-20T16:12:12.341Z,8.88
2023-04-20T16:14:38.858Z,10.65
2023-04-20T16:17:06.372Z,9.88
2023-04-20T16:19:34.424Z,8.05
2023-04-20T16:22:00.973Z,9.13
2023-04-20T16:24:27.489Z,9.68
2023-04-20T16:26:55.851Z,8.00
2023-04-20T16:29:22.389Z,8.55
2023-04-20T16:31:48.945Z,9.07
2023-04-20T16:34:15.910Z,8.32
2023-04-20T16:36:43.108Z,9.13
2023-04-20T16:39:10.171Z,8.50
2023-04-20T16:41:36.661Z,8.63
2023-04-20T16:44:03.492Z,10.07
2023-04-20T16:46:30.143Z,8.13
2023-04-20T16:48:56.658Z,8.43
2023-04-20T16:51:23.082Z,6.93
2023-04-20T16:53:49.545Z,8.50
2023-04-20T16:56:16.190Z,7.15
2023-04-20T16:58:42.560Z,8.13
2023-04-20T17:01:09.019Z,7.90
2023-04-20T17:03:35.780Z,8.40
2023-04-20T17:06:07.331Z,11.00
2023-04-20T17:08:34.663Z,8.32
2023-04-20T17:11:01.805Z,8.13
2023-04-20T17:13:28.228Z,9.50
2023-04-20T17:15:54.741Z,9.65
2023-04-20T17:18:21.656Z,9.38
2023-04-20T17:20:48.557Z,7.95
2023-04-20T17:23:17.534Z,9.18
2023-04-20T17:25:45.886Z,8.48
2023-04-20T17:28:12.269Z,8.50
2023-04-20T17:30:39.345Z,8.48
2023-04-20T17:33:08.248Z,8.85
2023-04-20T17:35:37.397Z,9.10
2023-04-20T17:38:04.609Z,9.23
2023-04-20T17:40:31.507Z,10.38
2023-04-20T17:42:57.890Z,8.52
2023-04-20T17:45:24.441Z,9.43
2023-04-20T17:47:50.994Z,8.85
2023-04-20T17:50:17.602Z,7.60
2023-04-20T17:56:58.553Z,8.55
2023-04-20T18:00:10.944Z,7.70
2023-04-20T18:03:48.285Z,8.82
2023-04-20T18:11:50.976Z,9.23
2023-04-20T18:20:19.495Z,8.32
2023-04-20T18:51:25.462Z,9.80
2023-04-20T18:53:52.898Z,8.77
2023-04-20T18:57:05.688Z,8.82
2023-04-20T18:59:38.612Z,9.25
2023-04-20T19:02:09.753Z,10.90
2023-04-20T19:04:45.703Z,10.55
2023-04-20T19:07:47.800Z,9.52
2023-04-20T19:12:54.281Z,9.40
2023-04-20T19:15:25.886Z,9.18
2023-04-20T19:18:09.256Z,10.32
2023-04-20T19:21:02.213Z,9.35
2023-04-20T19:23:34.176Z,8.82
2023-04-20T19:26:13.613Z,11.23
2023-04-20T19:28:40.363Z,10.20
2023-04-20T19:31:14.689Z,9.70
2023-04-20T19:33:47.756Z,10.57
2023-04-20T19:40:06.844Z,10.52
2023-04-20T19:42:37.118Z,9.48
2023-04-20T19:45:09.912Z,10.50
2023-04-20T19:47:38.906Z,11.93
2023-04-20T19:50:18.120Z,10.57
2023-04-20T19:52:44.936Z,10.13
2023-04-20T19:55:11.504Z,10.18
2023-04-20T19:57:37.980Z,10.52
2023-04-20T20:00:05.259Z,10.82
2023-04-20T20:03:58.374Z,10.32
2023-04-20T20:15:57.693Z,9.98
2023-04-20T20:19:03.486Z,11.75
2023-04-20T20:21:54.653Z,13.10
2023-04-20T20:24:37.138Z,11.07
2023-04-20T20:27:46.760Z,10.80
2023-04-20T20:30:39.231Z,11.73
2023-04-20T20:33:29.255Z,10.85
2023-04-20T20:39:10.119Z,12.05
2023-04-20T20:41:47.948Z,10.93
2023-04-20T20:44:45.261Z,13.07
2023-04-20T20:47:52.280Z,11.68
2023-04-20T20:50:55.603Z,11.40
2023-04-20T20:53:31.378Z,11.68
2023-04-20T20:55:58.594Z,12.20
2023-04-20T20:58:28.724Z,13.57
2023-04-20T21:00:58.246Z,10.90
2023-04-20T21:03:25.006Z,11.80
2023-04-20T21:05:51.805Z,11.98
2023-04-20T21:08:18.297Z,11.35
2023-04-20T21:10:44.666Z,13.13
2023-04-20T21:13:11.024Z,12.18
2023-04-20T21:15:37.535Z,13.88
2023-04-20T21:18:04.096Z,15.27
2023-04-20T21:20:30.567Z,13.90
2023-04-20T21:22:56.934Z,13.80
2023-04-20T21:25:23.526Z,14.98
2023-04-20T21:27:49.917Z,14.18
2023-04-20T21:30:16.292Z,12.40
2023-04-20T21:32:42.678Z,13.55
2023-04-20T21:35:09.380Z,14.65
2023-04-20T21:37:35.975Z,13.65
2023-04-20T21:40:02.334Z,14.32
2023-04-20T21:42:28.753Z,13.43
2023-04-20T21:44:55.392Z,13.57
2023-04-20T21:47:21.825Z,14.07
2023-04-20T21:49:48.359Z,14.98
2023-04-20T21:52:14.811Z,13.65
2023-04-20T21:54:41.909Z,14.45
2023-04-20T21:57:08.457Z,13.30
2023-04-20T21:59:34.829Z,15.15
2023-04-20T22:02:01.348Z,18.30
2023-04-20T22:04:28.447Z,13.15
2023-04-20T22:06:55.470Z,14.23
2023-04-20T22:09:22.668Z,16.65
2023-04-20T22:11:49.945Z,14.70
2023-04-20T22:14:17.322Z,14.57
2023-04-20T22:16:43.721Z,14.82
2023-04-20T22:19:10.143Z,15.05
2023-04-20T22:21:36.529Z,14.50
2023-04-20T22:24:03.390Z,14.18
2023-04-20T22:26:29.778Z,13.50
2023-04-20T22:28:56.131Z,13.40
2023-04-20T22:31:22.597Z,14.27
2023-04-20T22:33:48.989Z,14.75
2023-04-20T22:36:15.527Z,15.88
2023-04-20T22:38:41.879Z,13.70
2023-04-20T22:41:08.285Z,15.32
2023-04-20T22:43:34.713Z,17.33
2023-04-20T22:46:01.179Z,15.65
2023-04-20T22:48:28.244Z,13.63
2023-04-20T22:50:54.830Z,14.02
2023-04-20T22:53:21.587Z,15.40
2023-04-20T22:55:48.146Z,17.20
2023-04-20T22:58:14.589Z,16.02
2023-04-20T23:00:41.017Z,17.15
2023-04-20T23:03:07.534Z,15.15
2023-04-20T23:05:34.293Z,16.55
2023-04-20T23:08:00.762Z,15.60
2023-04-20T23:10:28.851Z,16.95
2023-04-20T23:12:55.505Z,16.83
2023-04-20T23:15:22.561Z,17.35
2023-04-20T23:17:49.053Z,15.63
2023-04-20T23:20:15.501Z,18.92
2023-04-20T23:22:41.898Z,18.45
2023-04-20T23:25:09.844Z,18.00
2023-04-20T23:27:36.516Z,17.10
2023-04-20T23:30:03.055Z,19.02
2023-04-20T23:32:29.582Z,18.17
2023-04-20T23:34:56.226Z,16.67
2023-04-20T23:37:22.692Z,18.40
2023-04-20T23:39:49.085Z,15.43
2023-04-20T23:42:15.490Z,17.65
2023-04-20T23:44:42.043Z,18.63
2023-04-20T23:47:08.385Z,19.42
2023-04-20T23:49:34.772Z,15.45
2023-04-20T23:52:01.154Z,18.45
2023-04-20T23:54:27.618Z,17.70
2023-04-20T23:56:55.422Z,17.48
2023-04-20T23:59:21.809Z,17.42
